Time;durP1;ratioP1;P1;durP2;ratioP2;P2;SDS_P1;SDS_P2;PMS_P1;PMS_P2;Temp;Humidity;BMP_temperature;BMP_pressure;BME280_temperature;BME280_humidity;BME280_pressure;Samples;Min_cycle;Max_cycle;Signal;HPM_P1;HPM_P2
2021/08/10 00:01:15;;;;;;;4.55;4.15;;;14.50;99.90;;;;;;5047370;28;20208;-71
2021/08/10 00:03:42;;;;;;;5.20;4.80;;;14.40;99.90;;;;;;5047345;28;20292;-70
2021/08/10 00:06:09;;;;;;;5.88;4.80;;;14.50;99.90;;;;;;5047669;28;20320;-70
2021/08/10 00:08:36;;;;;;;4.70;4.30;;;14.50;99.90;;;;;;5047226;28;20212;-70
2021/08/10 00:11:03;;;;;;;4.38;3.95;;;14.40;99.90;;;;;;5047513;28;20202;-70
2021/08/10 00:13:30;;;;;;;4.82;4.43;;;14.50;99.90;;;;;;5047330;28;20220;-70
2021/08/10 00:15:57;;;;;;;4.80;4.38;;;14.40;99.90;;;;;;5046534;28;20287;-70
2021/08/10 00:18:27;;;;;;;3.90;3.70;;;14.40;99.90;;;;;;5047358;28;20253;-70
2021/08/10 00:20:54;;;;;;;5.18;4.25;;;14.30;99.90;;;;;;5047299;28;20252;-70
2021/08/10 00:23:21;;;;;;;4.60;4.20;;;14.20;99.90;;;;;;5046827;28;20293;-70
2021/08/10 00:25:49;;;;;;;4.40;4.10;;;14.20;99.90;;;;;;5046368;28;20320;-70
2021/08/10 00:28:16;;;;;;;4.93;4.53;;;14.20;99.90;;;;;;5047159;28;21243;-70
2021/08/10 00:30:44;;;;;;;5.05;4.65;;;14.20;99.90;;;;;;5047604;28;20205;-69
2021/08/10 00:33:12;;;;;;;4.65;4.25;;;14.20;99.90;;;;;;5046676;28;20285;-70
2021/08/10 00:35:40;;;;;;;5.40;4.53;;;14.30;99.90;;;;;;5046661;28;20950;-70
2021/08/10 00:38:09;;;;;;;5.03;4.60;;;14.30;99.90;;;;;;5046834;28;20304;-71
2021/08/10 00:40:37;;;;;;;4.53;4.13;;;14.30;99.90;;;;;;5047060;28;20204;-70
2021/08/10 00:43:04;;;;;;;5.30;4.80;;;14.30;99.90;;;;;;5047271;28;20226;-70
2021/08/10 00:45:31;;;;;;;6.35;4.55;;;14.20;99.90;;;;;;5045263;28;20212;-70
2021/08/10 00:47:58;;;;;;;6.50;5.90;;;14.10;99.90;;;;;;5046746;28;20296;-70
2021/08/10 00:50:25;;;;;;;5.80;5.05;;;14.00;99.90;;;;;;5047305;28;20208;-70
2021/08/10 00:52:53;;;;;;;4.90;4.50;;;14.00;99.90;;;;;;5046666;28;20217;-70
2021/08/10 00:55:20;;;;;;;5.78;4.72;;;14.00;99.90;;;;;;5046414;28;20577;-71
2021/08/10 00:57:47;;;;;;;5.03;4.63;;;14.00;99.90;;;;;;5046783;28;20198;-70
2021/08/10 01:00:14;;;;;;;7.20;4.75;;;13.90;99.90;;;;;;5046483;28;20240;-70
2021/08/10 01:02:41;;;;;;;4.97;4.55;;;13.90;99.90;;;;;;5046652;28;20211;-70
2021/08/10 01:05:11;;;;;;;6.70;4.70;;;13.80;99.90;;;;;;5045839;28;20240;-69
2021/08/10 01:07:46;;;;;;;5.50;4.88;;;13.70;99.90;;;;;;5046157;28;20296;-70
2021/08/10 01:10:21;;;;;;;5.50;4.85;;;13.80;99.90;;;;;;5046567;28;20662;-71
2021/08/10 01:12:55;;;;;;;9.27;4.80;;;13.80;99.90;;;;;;5046688;28;20196;-70
2021/08/10 01:15:27;;;;;;;6.78;4.90;;;14.00;99.90;;;;;;5030671;28;20210;-72
2021/08/10 01:17:59;;;;;;;5.82;4.70;;;13.90;99.90;;;;;;5026480;28;20220;-70
2021/08/10 01:20:41;;;;;;;6.50;5.03;;;13.80;99.90;;;;;;5033553;28;20362;-70
2021/08/10 01:23:12;;;;;;;5.55;5.05;;;13.80;99.90;;;;;;5046644;28;20292;-70
2021/08/10 01:25:56;;;;;;;7.50;4.63;;;13.80;99.90;;;;;;5044795;28;20565;-70
2021/08/10 01:28:35;;;;;;;6.95;4.80;;;13.70;99.90;;;;;;5046346;28;20197;-70
2021/08/10 01:31:20;;;;;;;4.95;4.55;;;13.60;99.90;;;;;;5046718;28;20237;-70
2021/08/10 01:33:49;;;;;;;5.13;4.63;;;13.60;99.90;;;;;;5046099;28;20293;-70
2021/08/10 01:36:20;;;;;;;8.70;5.85;;;13.50;99.90;;;;;;5048696;28;20288;-70
2021/08/10 01:38:53;;;;;;;6.00;5.40;;;13.50;99.90;;;;;;5050171;28;20233;-70
2021/08/10 01:41:22;;;;;;;7.20;5.80;;;13.50;99.90;;;;;;5050872;28;20288;-70
2021/08/10 01:43:50;;;;;;;5.70;4.57;;;13.40;99.90;;;;;;5050354;28;20225;-70
2021/08/10 01:46:18;;;;;;;6.80;4.85;;;13.40;99.90;;;;;;5049683;28;20293;-70
2021/08/10 01:48:46;;;;;;;5.45;4.95;;;13.40;99.90;;;;;;5050405;28;20197;-70
2021/08/10 01:51:12;;;;;;;8.60;5.00;;;13.40;99.90;;;;;;5050347;28;20208;-70
2021/08/10 01:53:40;;;;;;;5.60;4.70;;;13.40;99.90;;;;;;5049675;28;20296;-70
2021/08/10 01:56:08;;;;;;;6.90;5.68;;;13.40;99.90;;;;;;5048509;28;20216;-70
2021/08/10 01:58:37;;;;;;;5.40;4.93;;;13.30;99.90;;;;;;5049522;28;20208;-70
2021/08/10 02:01:04;;;;;;;6.13;5.53;;;13.30;99.90;;;;;;5050011;28;20642;-71
2021/08/10 02:03:35;;;;;;;6.10;5.10;;;13.30;99.90;;;;;;5049670;28;20372;-71
2021/08/10 02:06:02;;;;;;;6.32;5.72;;;13.30;99.90;;;;;;5048811;28;20220;-70
2021/08/10 02:08:31;;;;;;;6.20;5.40;;;13.30;99.90;;;;;;5049859;28;20284;-71
2021/08/10 02:10:59;;;;;;;6.20;5.60;;;13.30;99.90;;;;;;5049511;28;20319;-71
2021/08/10 02:13:26;;;;;;;6.50;5.95;;;13.40;99.90;;;;;;5050110;28;20233;-71
2021/08/10 02:15:55;;;;;;;6.72;5.20;;;13.40;99.90;;;;;;5048308;28;20197;-70
2021/08/10 02:18:22;;;;;;;6.70;6.00;;;13.30;99.90;;;;;;5049822;28;20690;-70
2021/08/10 02:20:55;;;;;;;6.38;5.78;;;13.50;99.90;;;;;;5049628;28;20328;-70
2021/08/10 02:23:25;;;;;;;6.07;5.57;;;13.50;99.90;;;;;;5050032;28;20214;-70
2021/08/10 02:25:54;;;;;;;6.40;5.80;;;13.40;99.90;;;;;;5048094;28;20217;-70
2021/08/10 02:28:21;;;;;;;5.63;5.13;;;13.40;99.90;;;;;;5049532;28;20292;-70
2021/08/10 02:30:53;;;;;;;6.22;5.30;;;13.40;99.90;;;;;;5049604;28;20205;-71
2021/08/10 02:33:22;;;;;;;6.07;5.47;;;13.30;99.90;;;;;;5049445;28;20198;-71
2021/08/10 02:35:53;;;;;;;6.75;6.15;;;13.30;99.90;;;;;;5048040;28;20716;-71
2021/08/10 02:38:22;;;;;;;6.80;6.20;;;13.30;99.90;;;;;;5049172;28;20205;-70
2021/08/10 02:40:50;;;;;;;5.68;5.18;;;13.30;99.90;;;;;;5049678;28;20324;-70
2021/08/10 02:43:18;;;;;;;6.50;5.55;;;13.20;99.90;;;;;;5038487;28;20234;-70
2021/08/10 02:45:45;;;;;;;7.05;5.63;;;13.30;99.90;;;;;;5045972;28;20301;-70
2021/08/10 02:48:13;;;;;;;6.00;5.47;;;13.10;99.90;;;;;;5039163;28;20969;-71
2021/08/10 02:50:39;;;;;;;5.70;5.20;;;13.10;99.90;;;;;;5048809;28;20206;-70
2021/08/10 02:53:08;;;;;;;6.60;6.00;;;12.90;99.90;;;;;;5048457;28;20225;-70
2021/08/10 02:55:37;;;;;;;7.25;5.80;;;12.90;99.90;;;;;;5048202;28;20209;-71
2021/08/10 02:58:08;;;;;;;5.65;5.05;;;12.80;99.90;;;;;;5048763;28;20209;-71
2021/08/10 03:00:41;;;;;;;7.32;5.75;;;12.90;99.90;;;;;;5048207;28;20240;-70
2021/08/10 03:03:11;;;;;;;8.68;5.78;;;12.80;99.90;;;;;;5049010;28;20293;-71
2021/08/10 03:05:41;;;;;;;8.38;5.57;;;12.80;99.90;;;;;;5048079;28;20228;-70
2021/08/10 03:08:13;;;;;;;7.45;6.10;;;12.80;99.90;;;;;;5048116;28;20198;-70
2021/08/10 03:10:43;;;;;;;7.35;6.07;;;12.90;99.90;;;;;;5049013;28;20328;-71
2021/08/10 03:13:11;;;;;;;5.82;5.32;;;12.90;99.90;;;;;;5048629;28;20593;-70
2021/08/10 03:15:40;;;;;;;7.45;6.72;;;13.00;99.90;;;;;;5047405;28;20293;-71
2021/08/10 03:18:11;;;;;;;6.90;6.20;;;13.00;99.90;;;;;;5048519;28;20212;-71
2021/08/10 03:20:40;;;;;;;6.93;6.30;;;13.00;99.90;;;;;;5048625;28;20710;-70
2021/08/10 03:23:13;;;;;;;8.98;6.70;;;13.00;99.90;;;;;;5048454;28;20580;-70
2021/08/10 03:25:41;;;;;;;6.95;6.30;;;13.00;99.90;;;;;;5046842;28;20201;-70
2021/08/10 03:28:08;;;;;;;9.38;5.90;;;13.00;99.90;;;;;;5048399;28;20228;-70
2021/08/10 03:30:35;;;;;;;5.72;5.28;;;13.00;99.90;;;;;;5048680;28;20289;-70
2021/08/10 03:33:03;;;;;;;6.00;5.50;;;13.10;99.90;;;;;;5048272;28;20952;-71
2021/08/10 03:35:30;;;;;;;5.90;5.05;;;13.10;99.90;;;;;;5046791;28;20300;-70
2021/08/10 03:37:57;;;;;;;6.18;5.57;;;13.00;99.90;;;;;;5045760;28;20558;-70
2021/08/10 03:40:26;;;;;;;7.85;6.03;;;12.90;99.90;;;;;;5048719;28;20698;-70
2021/08/10 03:42:54;;;;;;;5.60;5.07;;;12.70;99.90;;;;;;5048395;28;20285;-71
2021/08/10 03:45:23;;;;;;;6.82;5.80;;;12.60;99.90;;;;;;5046629;28;20202;-71
2021/08/10 03:47:52;;;;;;;6.20;5.65;;;12.50;99.90;;;;;;5048015;28;20316;-70
2021/08/10 03:50:20;;;;;;;7.03;6.28;;;12.50;99.90;;;;;;5048093;28;20276;-71
2021/08/10 03:52:49;;;;;;;6.47;5.85;;;12.60;99.90;;;;;;5047302;28;20320;-70
2021/08/10 03:55:16;;;;;;;6.53;5.90;;;12.60;99.90;;;;;;5037623;28;20202;-70
2021/08/10 03:57:47;;;;;;;6.20;5.65;;;12.60;99.90;;;;;;5027654;28;20206;-70
2021/08/10 04:00:16;;;;;;;6.72;6.10;;;12.70;99.90;;;;;;5027747;28;20264;-71
2021/08/10 04:02:44;;;;;;;8.77;6.57;;;12.70;99.90;;;;;;5031583;28;20205;-71
2021/08/10 04:05:11;;;;;;;7.25;6.55;;;12.70;99.90;;;;;;5046566;28;20300;-71
2021/08/10 04:07:41;;;;;;;6.25;5.65;;;12.60;99.90;;;;;;5047933;28;20220;-70
2021/08/10 04:10:09;;;;;;;6.85;6.03;;;12.70;99.90;;;;;;5047415;28;20209;-70
2021/08/10 04:12:36;;;;;;;6.15;5.55;;;12.70;99.90;;;;;;5047802;28;20190;-70
2021/08/10 04:15:06;;;;;;;6.80;6.10;;;12.70;99.90;;;;;;5046352;28;20213;-70
2021/08/10 04:17:37;;;;;;;6.18;5.68;;;12.60;99.90;;;;;;5047565;28;20210;-71
2021/08/10 04:20:04;;;;;;;7.05;5.80;;;12.50;99.90;;;;;;5047307;28;20330;-71
2021/08/10 04:22:32;;;;;;;6.82;6.03;;;12.60;99.90;;;;;;5047320;28;20540;-71
2021/08/10 04:24:59;;;;;;;7.13;6.00;;;12.90;99.90;;;;;;5047211;28;20206;-70
2021/08/10 04:27:26;;;;;;;7.20;6.60;;;13.00;99.90;;;;;;5046867;28;20240;-70
2021/08/10 04:29:54;;;;;;;6.55;5.95;;;13.00;99.90;;;;;;5047080;28;20216;-70
2021/08/10 04:32:22;;;;;;;5.90;5.40;;;13.20;99.90;;;;;;5046940;28;20206;-71
2021/08/10 04:34:49;;;;;;;5.70;5.28;;;13.30;99.90;;;;;;5046743;28;20216;-70
2021/08/10 04:37:16;;;;;;;5.20;4.70;;;13.50;99.90;;;;;;5046951;28;20568;-71
2021/08/10 04:39:43;;;;;;;6.68;5.13;;;13.60;99.90;;;;;;5046904;28;20206;-71
2021/08/10 04:42:12;;;;;;;5.93;5.00;;;13.60;99.90;;;;;;5046679;28;20233;-70
2021/08/10 04:44:39;;;;;;;6.40;5.50;;;13.60;99.90;;;;;;5046675;28;20664;-71
2021/08/10 04:47:06;;;;;;;5.03;4.55;;;13.70;99.90;;;;;;5046327;28;20288;-70
2021/08/10 04:49:34;;;;;;;6.00;5.50;;;13.60;99.90;;;;;;5046827;28;20220;-70
2021/08/10 04:52:02;;;;;;;6.10;5.50;;;13.70;99.90;;;;;;5046653;28;20328;-70
2021/08/10 04:54:29;;;;;;;5.53;5.03;;;13.70;99.90;;;;;;5047030;28;20217;-71
2021/08/10 04:56:56;;;;;;;5.90;5.40;;;13.60;99.90;;;;;;5046333;28;20297;-71
2021/08/10 04:59:23;;;;;;;6.18;5.57;;;13.60;99.90;;;;;;5046682;28;20739;-70
2021/08/10 05:01:50;;;;;;;6.38;5.78;;;13.50;99.90;;;;;;5044979;28;20233;-70
2021/08/10 05:04:17;;;;;;;6.13;5.60;;;13.60;99.90;;;;;;5045882;28;20662;-71
2021/08/10 05:06:45;;;;;;;6.35;5.85;;;13.70;99.90;;;;;;5045541;28;20301;-70
2021/08/10 05:09:12;;;;;;;6.10;5.60;;;13.90;99.90;;;;;;5045471;28;20216;-71
2021/08/10 05:11:39;;;;;;;6.90;5.65;;;13.90;99.90;;;;;;5046320;28;20236;-71
2021/08/10 05:14:06;;;;;;;5.50;5.00;;;14.00;99.90;;;;;;5046146;28;20211;-71
2021/08/10 05:16:33;;;;;;;5.47;5.05;;;14.20;99.90;;;;;;5045393;28;20209;-70
2021/08/10 05:18:59;;;;;;;5.78;5.00;;;14.20;99.90;;;;;;5046450;28;20208;-70
2021/08/10 05:21:26;;;;;;;6.22;5.63;;;14.30;99.90;;;;;;5045737;28;20305;-71
2021/08/10 05:23:55;;;;;;;5.95;5.40;;;14.50;99.90;;;;;;5046002;28;20209;-70
2021/08/10 05:26:24;;;;;;;6.63;5.25;;;14.40;99.90;;;;;;5045901;28;20211;-70
2021/08/10 05:28:51;;;;;;;6.47;5.78;;;14.50;99.90;;;;;;5046317;28;20670;-71
2021/08/10 05:31:18;;;;;;;10.20;5.55;;;14.50;99.90;;;;;;5046332;28;20293;-70
2021/08/10 05:33:48;;;;;;;5.40;4.90;;;14.60;99.90;;;;;;5045876;28;20206;-70
2021/08/10 05:36:15;;;;;;;7.25;5.28;;;14.60;99.90;;;;;;5046028;28;20240;-71
2021/08/10 05:38:44;;;;;;;6.05;5.45;;;14.50;99.90;;;;;;5046193;28;20194;-70
2021/08/10 05:41:13;;;;;;;5.93;4.60;;;14.50;99.90;;;;;;5045844;28;20225;-69
2021/08/10 05:43:40;;;;;;;5.30;4.80;;;14.60;99.90;;;;;;5045531;28;20288;-69
2021/08/10 05:46:06;;;;;;;6.25;5.18;;;14.80;99.90;;;;;;5045269;28;20233;-69
2021/08/10 05:48:33;;;;;;;6.35;4.43;;;15.10;99.90;;;;;;5046414;28;20267;-69
2021/08/10 05:51:03;;;;;;;5.57;5.00;;;15.40;99.90;;;;;;5045914;28;20639;-70
2021/08/10 05:53:31;;;;;;;6.65;5.38;;;15.60;99.90;;;;;;5046750;28;20674;-69
2021/08/10 05:55:58;;;;;;;6.47;5.38;;;15.60;99.90;;;;;;5045682;28;20572;-69
2021/08/10 05:58:26;;;;;;;5.32;4.40;;;15.50;99.90;;;;;;5046281;28;20754;-69
2021/08/10 06:00:53;;;;;;;6.97;5.15;;;15.50;99.90;;;;;;5044831;28;20253;-69
2021/08/10 06:03:20;;;;;;;6.13;5.63;;;15.50;99.90;;;;;;5045425;28;20263;-69
2021/08/10 06:05:47;;;;;;;6.53;5.50;;;15.60;99.90;;;;;;5044669;28;20284;-70
2021/08/10 06:08:14;;;;;;;6.20;5.63;;;15.80;99.90;;;;;;5045712;28;20221;-69
2021/08/10 06:10:41;;;;;;;5.70;5.20;;;15.70;99.90;;;;;;5044918;28;20204;-70
2021/08/10 06:13:08;;;;;;;6.63;5.97;;;15.60;99.90;;;;;;5045691;28;20210;-70
2021/08/10 06:15:38;;;;;;;6.68;6.07;;;15.50;99.90;;;;;;5045819;28;20613;-70
2021/08/10 06:18:05;;;;;;;6.18;5.38;;;15.40;99.90;;;;;;5045238;28;20205;-69
2021/08/10 06:20:31;;;;;;;6.38;5.70;;;15.20;99.90;;;;;;5045631;28;20269;-71
2021/08/10 06:23:00;;;;;;;6.07;5.55;;;15.30;99.90;;;;;;5049690;28;20245;-70
2021/08/10 06:25:27;;;;;;;6.45;5.95;;;15.60;99.90;;;;;;5049683;28;20209;-70
2021/08/10 06:27:55;;;;;;;5.40;4.90;;;15.50;99.90;;;;;;5049335;28;20202;-71
2021/08/10 06:30:22;;;;;;;5.97;5.40;;;15.50;99.90;;;;;;5049494;28;20769;-70
2021/08/10 06:32:50;;;;;;;6.32;5.72;;;15.50;99.90;;;;;;5049263;28;20663;-70
2021/08/10 06:35:18;;;;;;;6.60;6.00;;;15.80;99.90;;;;;;5048568;28;20204;-70
2021/08/10 06:37:45;;;;;;;6.57;5.38;;;15.90;99.90;;;;;;5048867;28;20304;-70
2021/08/10 06:40:12;;;;;;;6.45;5.45;;;16.20;99.90;;;;;;5049008;28;20241;-70
2021/08/10 06:42:42;;;;;;;6.05;5.10;;;16.20;99.90;;;;;;5048879;28;20285;-69
2021/08/10 06:45:13;;;;;;;5.75;5.20;;;16.50;99.90;;;;;;5028496;28;20206;-70
2021/08/10 06:47:42;;;;;;;5.90;4.78;;;16.50;99.90;;;;;;5022006;28;20214;-70
2021/08/10 06:50:11;;;;;;;5.78;5.28;;;17.20;99.90;;;;;;5029462;28;20664;-70
2021/08/10 06:52:41;;;;;;;5.05;4.50;;;17.80;99.90;;;;;;5047300;28;20317;-68
2021/08/10 06:55:08;;;;;;;4.80;4.40;;;18.60;99.90;;;;;;5048083;28;20205;-69
2021/08/10 06:57:38;;;;;;;5.07;4.17;;;19.60;99.90;;;;;;5049285;28;20216;-70
2021/08/10 07:00:09;;;;;;;4.60;4.10;;;20.50;99.90;;;;;;5045749;28;20635;-69
2021/08/10 07:02:36;;;;;;;5.33;4.40;;;21.50;97.90;;;;;;5037330;28;20772;-70
2021/08/10 07:05:03;;;;;;;4.53;4.13;;;23.00;96.20;;;;;;5041771;28;20628;-70
2021/08/10 07:07:31;;;;;;;4.77;4.37;;;24.10;93.20;;;;;;5047836;28;21283;-70
2021/08/10 07:10:06;;;;;;;4.17;3.80;;;25.90;90.50;;;;;;5040893;28;20750;-70
2021/08/10 07:13:04;;;;;;;3.90;3.60;;;25.60;89.10;;;;;;5047722;28;21450;-70
2021/08/10 07:15:44;;;;;;;4.70;4.23;;;25.50;88.20;;;;;;5045322;28;20668;-72
2021/08/10 07:18:16;;;;;;;5.60;4.20;;;24.00;89.20;;;;;;5029363;28;20708;-71
2021/08/10 07:20:49;;;;;;;4.07;3.60;;;23.90;90.80;;;;;;5048103;28;20683;-70
2021/08/10 07:23:19;;;;;;;4.20;3.90;;;24.20;90.50;;;;;;5041256;28;20740;-70
2021/08/10 07:25:46;;;;;;;3.70;3.50;;;24.00;90.80;;;;;;5039497;28;20728;-70
2021/08/10 07:28:15;;;;;;;4.53;4.23;;;23.10;91.30;;;;;;5045754;28;20634;-71
2021/08/10 07:30:44;;;;;;;4.33;4.03;;;22.60;92.20;;;;;;5039196;28;21134;-70
2021/08/10 07:33:11;;;;;;;4.80;4.40;;;22.40;92.50;;;;;;5042646;28;20639;-70
2021/08/10 07:35:38;;;;;;;5.00;4.60;;;22.00;93.30;;;;;;5041903;28;21229;-70
2021/08/10 07:38:06;;;;;;;4.87;4.50;;;22.20;93.30;;;;;;5043630;28;21316;-70
2021/08/10 07:40:35;;;;;;;4.70;4.30;;;21.50;94.20;;;;;;5041634;28;20643;-71
2021/08/10 07:43:02;;;;;;;6.17;3.93;;;21.30;94.70;;;;;;5044457;28;20690;-70
2021/08/10 07:45:29;;;;;;;6.37;4.80;;;21.00;95.50;;;;;;5045966;28;20675;-70
2021/08/10 07:48:05;;;;;;;4.57;4.27;;;20.60;96.40;;;;;;5044453;28;21068;-69
2021/08/10 07:50:32;;;;;;;5.07;4.63;;;20.50;96.30;;;;;;5046302;28;21066;-70
2021/08/10 07:53:11;;;;;;;5.00;4.60;;;20.20;97.00;;;;;;5042854;28;20643;-70
2021/08/10 07:55:40;;;;;;;4.97;4.47;;;20.50;97.20;;;;;;5047135;28;20640;-70
2021/08/10 07:58:07;;;;;;;5.07;4.57;;;20.90;97.40;;;;;;5054438;28;20632;-70
2021/08/10 08:00:35;;;;;;;4.30;4.00;;;21.60;95.80;;;;;;5042929;28;20636;-70
2021/08/10 08:03:01;;;;;;;6.63;4.13;;;22.00;95.20;;;;;;5039466;28;20641;-70
2021/08/10 08:05:28;;;;;;;5.10;4.60;;;22.40;95.10;;;;;;5045488;28;20672;-69
2021/08/10 08:07:55;;;;;;;4.57;4.17;;;22.70;94.30;;;;;;5041189;28;20640;-70
2021/08/10 08:10:22;;;;;;;5.23;4.30;;;22.80;94.20;;;;;;5045162;28;21366;-71
2021/08/10 08:12:50;;;;;;;5.07;4.30;;;22.60;94.60;;;;;;5042004;28;20640;-70
2021/08/10 08:15:18;;;;;;;4.37;4.07;;;22.60;94.60;;;;;;5049042;28;20631;-70
2021/08/10 08:17:45;;;;;;;4.83;3.97;;;22.90;93.90;;;;;;5042450;28;20699;-70
2021/08/10 08:20:13;;;;;;;4.67;4.27;;;23.20;93.90;;;;;;5041664;28;20636;-70
2021/08/10 08:22:40;;;;;;;5.33;3.87;;;23.50;92.80;;;;;;5042110;28;20788;-70
2021/08/10 08:25:07;;;;;;;4.07;3.77;;;23.60;92.60;;;;;;5039721;28;20760;-70
2021/08/10 08:27:34;;;;;;;4.03;3.57;;;23.60;92.70;;;;;;5037245;28;20727;-70
2021/08/10 08:30:03;;;;;;;3.63;3.37;;;23.70;92.10;;;;;;5044434;28;20668;-71
2021/08/10 08:32:30;;;;;;;4.60;4.20;;;23.50;92.50;;;;;;5044592;28;20744;-69
2021/08/10 08:34:57;;;;;;;3.80;3.50;;;23.30;92.40;;;;;;5036719;28;21173;-70
2021/08/10 08:40:11;;;;;;;3.87;3.57;;;23.50;92.60;;;;;;5024209;28;20642;-70
2021/08/10 08:42:42;;;;;;;4.17;3.87;;;23.40;92.10;;;;;;5023129;28;20673;-70
2021/08/10 08:45:14;;;;;;;4.13;3.83;;;23.60;91.70;;;;;;5040890;28;21184;-70
2021/08/10 08:47:48;;;;;;;4.27;3.97;;;23.70;91.90;;;;;;5038279;28;20627;-70
2021/08/10 08:50:17;;;;;;;3.40;3.20;;;23.80;91.30;;;;;;5038220;28;20658;-70
2021/08/10 08:52:49;;;;;;;3.53;2.90;;;23.80;91.40;;;;;;5053384;28;20641;-71
2021/08/10 08:55:17;;;;;;;3.47;3.27;;;23.70;91.20;;;;;;5048344;28;20642;-71
2021/08/10 08:57:44;;;;;;;3.93;3.63;;;23.80;92.00;;;;;;5052552;28;20730;-71
2021/08/10 09:00:16;;;;;;;3.73;3.43;;;24.00;91.40;;;;;;5036954;28;21058;-70
2021/08/10 09:02:46;;;;;;;4.00;3.10;;;24.40;90.10;;;;;;5039836;28;20683;-70
2021/08/10 09:05:14;;;;;;;3.10;2.90;;;24.30;90.40;;;;;;5045760;28;20624;-70
2021/08/10 09:07:41;;;;;;;4.43;3.60;;;24.30;90.50;;;;;;5042826;28;20747;-69
2021/08/10 09:10:14;;;;;;;3.60;3.30;;;24.30;89.60;;;;;;5033060;28;20683;-72
2021/08/10 09:12:45;;;;;;;3.37;3.07;;;24.60;90.20;;;;;;5037320;28;21161;-71
2021/08/10 09:15:30;;;;;;;3.73;3.00;;;24.50;90.10;;;;;;5038992;28;20756;-70
2021/08/10 09:18:08;;;;;;;3.33;3.03;;;24.70;89.00;;;;;;5047594;28;20634;-70
2021/08/10 09:20:35;;;;;;;3.70;3.00;;;24.90;87.90;;;;;;5042703;28;20989;-70
2021/08/10 09:23:02;;;;;;;3.50;3.20;;;24.90;90.20;;;;;;5037846;28;20681;-71
2021/08/10 09:25:31;;;;;;;3.43;3.20;;;25.20;89.00;;;;;;5043950;28;21027;-70
2021/08/10 09:28:05;;;;;;;3.00;2.73;;;25.40;88.00;;;;;;5042770;28;20667;-71
2021/08/10 09:30:39;;;;;;;3.20;2.90;;;25.70;85.80;;;;;;5044735;28;20632;-70
2021/08/10 09:33:07;;;;;;;2.93;2.73;;;25.90;83.40;;;;;;5045036;28;20644;-71
2021/08/10 09:35:35;;;;;;;3.00;2.70;;;26.00;84.30;;;;;;5042458;28;20645;-71
2021/08/10 09:38:15;;;;;;;3.20;2.90;;;26.20;87.00;;;;;;5052397;28;20651;-71
2021/08/10 09:40:44;;;;;;;3.00;2.80;;;26.10;83.10;;;;;;5051622;28;21177;-71
2021/08/10 09:43:39;;;;;;;3.10;2.90;;;26.50;84.40;;;;;;5042410;28;20741;-71
2021/08/10 09:46:14;;;;;;;2.90;2.70;;;26.60;81.00;;;;;;5045014;28;20704;-70
2021/08/10 09:48:43;;;;;;;3.03;2.73;;;26.50;80.70;;;;;;5041441;28;20623;-70
2021/08/10 09:51:15;;;;;;;3.60;3.30;;;26.10;84.10;;;;;;5038406;28;20706;-69
2021/08/10 09:53:45;;;;;;;2.87;2.57;;;26.30;82.80;;;;;;5050108;28;20623;-71
2021/08/10 09:56:12;;;;;;;3.10;2.50;;;26.20;85.20;;;;;;5038160;28;20642;-71
2021/08/10 09:58:59;;;;;;;2.60;2.40;;;26.00;83.00;;;;;;5044123;28;20691;-71
2021/08/10 10:01:36;;;;;;;2.93;2.60;;;26.10;83.50;;;;;;5035722;28;20629;-70
2021/08/10 10:04:14;;;;;;;3.00;2.77;;;25.70;82.10;;;;;;5046870;28;21582;-70
2021/08/10 10:06:42;;;;;;;2.47;2.27;;;26.00;84.20;;;;;;5055007;28;20639;-68
2021/08/10 10:09:09;;;;;;;2.30;2.20;;;26.10;83.30;;;;;;5058663;28;20659;-68
2021/08/10 10:11:38;;;;;;;2.70;2.50;;;26.10;86.00;;;;;;5042414;28;20727;-70
2021/08/10 10:14:06;;;;;;;2.70;2.50;;;26.10;82.90;;;;;;5051384;28;20651;-70
2021/08/10 10:16:36;;;;;;;2.90;2.67;;;26.00;86.50;;;;;;5045362;28;20638;-70
2021/08/10 10:19:10;;;;;;;7.97;2.70;;;26.10;83.40;;;;;;5041445;28;20732;-70
2021/08/10 10:21:41;;;;;;;2.27;2.17;;;25.90;84.40;;;;;;5043274;28;21210;-70
2021/08/10 10:24:09;;;;;;;2.90;2.70;;;25.80;84.30;;;;;;5053221;28;20616;-70
2021/08/10 10:26:39;;;;;;;2.70;2.50;;;25.90;84.70;;;;;;5035677;28;20598;-70
2021/08/10 10:29:07;;;;;;;2.50;2.30;;;25.90;86.00;;;;;;5049955;28;20624;-71
2021/08/10 10:31:35;;;;;;;2.40;2.30;;;26.20;83.00;;;;;;5047642;28;20946;-71
2021/08/10 10:34:04;;;;;;;2.50;2.30;;;26.30;83.10;;;;;;5046175;28;20611;-70
2021/08/10 10:36:32;;;;;;;3.13;2.83;;;26.50;85.40;;;;;;5050462;28;20636;-70
2021/08/10 10:39:01;;;;;;;2.40;2.30;;;26.70;82.20;;;;;;5050329;28;20697;-70
2021/08/10 10:41:34;;;;;;;2.80;2.70;;;26.80;81.40;;;;;;5041171;28;21404;-70
2021/08/10 10:44:03;;;;;;;2.40;2.30;;;26.90;80.60;;;;;;5042661;28;20736;-70
2021/08/10 10:46:33;;;;;;;2.53;2.30;;;26.80;78.10;;;;;;5051688;28;20979;-70
2021/08/10 10:49:03;;;;;;;2.60;2.40;;;26.70;78.80;;;;;;5048530;28;20686;-70
2021/08/10 10:51:33;;;;;;;3.70;3.03;;;26.80;79.80;;;;;;5050944;28;20631;-70
2021/08/10 10:54:27;;;;;;;2.50;2.40;;;27.00;82.30;;;;;;5045925;28;20770;-70
2021/08/10 10:56:56;;;;;;;2.30;2.20;;;27.00;79.80;;;;;;5043346;28;20693;-70
2021/08/10 10:59:27;;;;;;;4.80;2.50;;;27.20;80.50;;;;;;5047468;28;20742;-71
2021/08/10 11:02:10;;;;;;;2.50;2.40;;;27.10;80.10;;;;;;5049415;28;20702;-70
2021/08/10 11:04:38;;;;;;;2.90;2.70;;;27.20;79.10;;;;;;5049509;28;21227;-70
2021/08/10 11:07:36;;;;;;;2.57;2.37;;;27.10;79.80;;;;;;5046123;28;20628;-70
2021/08/10 11:18:26;;;;;;;2.70;2.60;;;26.60;80.90;;;;;;4968693;28;21302;-67
2021/08/10 11:21:24;;;;;;;3.50;3.20;;;26.70;78.60;;;;;;4970316;28;20635;-67
2021/08/10 11:23:51;;;;;;;3.10;2.90;;;26.80;79.30;;;;;;4950626;29;20683;-68
2021/08/10 11:26:37;;;;;;;3.27;3.00;;;26.70;78.70;;;;;;4949586;29;20664;-68
2021/08/10 11:29:05;;;;;;;3.03;2.83;;;26.40;79.80;;;;;;4951006;29;20633;-68
2021/08/10 11:31:35;;;;;;;3.27;3.07;;;26.30;78.30;;;;;;4952267;28;21309;-68
2021/08/10 11:34:06;;;;;;;3.03;2.83;;;26.40;82.80;;;;;;4967614;28;20651;-68
2021/08/10 11:36:37;;;;;;;3.70;2.50;;;26.40;80.50;;;;;;4956362;28;20821;-68
2021/08/10 11:41:53;;;;;;;3.27;3.07;;;26.40;82.70;;;;;;4965655;28;20670;-68
2021/08/10 11:44:22;;;;;;;3.00;2.80;;;26.40;81.40;;;;;;4968994;28;20630;-68
2021/08/10 11:46:50;;;;;;;3.30;3.00;;;26.40;81.20;;;;;;4968471;28;20646;-68
2021/08/10 11:49:22;;;;;;;4.30;2.80;;;26.20;82.80;;;;;;4962859;28;20701;-68
2021/08/10 11:51:53;;;;;;;3.20;2.90;;;26.30;84.40;;;;;;4969032;28;20729;-67
2021/08/10 11:54:24;;;;;;;4.00;2.87;;;26.30;83.50;;;;;;4968860;28;20618;-68
2021/08/10 11:56:55;;;;;;;3.80;3.10;;;26.30;83.10;;;;;;4963271;28;21181;-68
2021/08/10 11:59:24;;;;;;;4.37;3.20;;;26.60;83.00;;;;;;4972842;28;20625;-68
2021/08/10 12:01:52;;;;;;;3.47;3.17;;;26.90;82.90;;;;;;4974770;28;20606;-67
2021/08/10 12:04:20;;;;;;;3.13;2.83;;;27.20;81.30;;;;;;4966736;28;21138;-67
2021/08/10 12:06:53;;;;;;;3.20;2.80;;;27.30;80.10;;;;;;4967043;28;20746;-69
2021/08/10 12:09:22;;;;;;;3.10;2.80;;;27.30;79.00;;;;;;4966263;28;20620;-67
2021/08/10 12:11:52;;;;;;;2.93;2.73;;;27.20;80.10;;;;;;4968513;28;20646;-68
2021/08/10 12:14:22;;;;;;;3.47;3.27;;;27.50;78.60;;;;;;4962935;28;21273;-68
2021/08/10 12:16:59;;;;;;;3.40;3.20;;;27.80;79.00;;;;;;4964295;28;20659;-67
2021/08/10 12:19:34;;;;;;;3.10;2.90;;;27.70;77.60;;;;;;4960287;28;21067;-68
2021/08/10 12:22:04;;;;;;;3.17;2.97;;;27.70;78.70;;;;;;4967844;28;20625;-68
2021/08/10 12:24:34;;;;;;;3.63;3.33;;;27.30;78.10;;;;;;4963289;28;20753;-67
2021/08/10 12:27:02;;;;;;;3.00;2.80;;;27.10;82.00;;;;;;4962912;28;20706;-68
2021/08/10 12:29:36;;;;;;;3.33;3.13;;;26.90;77.80;;;;;;4964508;28;20636;-68
2021/08/10 12:32:04;;;;;;;3.67;3.37;;;26.70;78.20;;;;;;4960218;28;20655;-67
2021/08/10 12:34:32;;;;;;;3.53;3.33;;;26.70;78.20;;;;;;4962465;28;20667;-69
2021/08/10 12:36:59;;;;;;;3.07;2.87;;;26.50;79.70;;;;;;4985372;23;20798;-68
2021/08/10 12:39:29;;;;;;;2.97;2.77;;;26.70;81.50;;;;;;4981754;28;21004;-69
2021/08/10 12:42:01;;;;;;;3.37;3.10;;;26.80;77.90;;;;;;4990971;23;20693;-68
2021/08/10 12:44:33;;;;;;;2.90;2.70;;;26.80;79.00;;;;;;4977328;28;20649;-68
2021/08/10 12:47:01;;;;;;;2.63;2.43;;;27.20;82.40;;;;;;4970696;28;20614;-67
2021/08/10 12:49:36;;;;;;;3.07;2.63;;;27.50;76.60;;;;;;4974407;28;20615;-67
2021/08/10 12:52:05;;;;;;;3.17;2.97;;;27.50;81.40;;;;;;4978261;28;20730;-68
2021/08/10 12:54:35;;;;;;;4.37;3.23;;;27.20;77.80;;;;;;4978272;28;20675;-68
2021/08/10 12:57:04;;;;;;;4.10;3.10;;;27.10;78.10;;;;;;4981435;28;20649;-67
2021/08/10 12:59:44;;;;;;;3.13;2.93;;;27.10;80.10;;;;;;4975851;28;20686;-68
2021/08/10 13:02:12;;;;;;;3.23;3.03;;;27.20;80.30;;;;;;4986744;28;20644;-68
2021/08/10 13:04:55;;;;;;;5.40;3.60;;;27.20;80.10;;;;;;4977223;28;20977;-68
2021/08/10 13:07:22;;;;;;;4.07;3.67;;;27.30;77.30;;;;;;4977875;28;20630;-68
2021/08/10 13:09:56;;;;;;;3.70;3.40;;;27.10;79.80;;;;;;4984719;28;20638;-68
2021/08/10 13:12:24;;;;;;;3.67;3.37;;;26.90;81.80;;;;;;4980712;28;20605;-67
2021/08/10 13:15:06;;;;;;;3.90;3.60;;;27.10;79.80;;;;;;4985700;28;20703;-67